Queenstown Aerodrome, New Zealand
Current Conditions -  °F | °C
As of 3:00 PM on Saturday 22 Nov 2014 (Local Time) from NZCH Reporting Station
Clear Clear  
Wind Chill: 66°   Ceiling: Unl
Heat Index: 66°   Visibility: 6mi
Dew Point: 54°   Wind: 26mph
Humidity: 64%   Direction: 200°SSW
Pressure: 29.47"   Gusts: NA
Location:  45.02°S, 168.73°E
Report Text: NZCH 220300Z AUTO 20023KT 9999 NCD 19/12 Q0998 NOSIG
Loading
Personal Weather Stations






























Interactive Weather Map New forecast layout! Learn more

10-Day Weather Forecast

Advertisements
Track Severe Weather on mobile